Time;durP1;ratioP1;P1;durP2;ratioP2;P2;SDS_P1;SDS_P2;PMS_P1;PMS_P2;Temp;Humidity;BMP_temperature;BMP_pressure;BME280_temperature;BME280_humidity;BME280_pressure;Samples;Min_cycle;Max_cycle;Signal;HPM_P1;HPM_P2
2024/04/19 00:00:07;;;;;;;53.60;47.90;;;;;;;5.60;82.43;99314.53;5417152;26;19999;-46
2024/04/19 00:02:33;;;;;;;118.10;105.78;;;;;;;5.68;83.09;99309.38;5417387;26;20014;-46
2024/04/19 00:04:59;;;;;;;41.25;32.35;;;;;;;5.88;84.17;99306.56;5419108;26;20007;-46
2024/04/19 00:07:24;;;;;;;6.75;6.00;;;;;;;6.09;84.42;99309.63;5417120;26;20003;-46
2024/04/19 00:09:50;;;;;;;140.13;124.97;;;;;;;6.19;84.00;99302.50;5417156;26;20003;-46
2024/04/19 00:12:15;;;;;;;12.02;10.25;;;;;;;6.27;83.49;99301.72;5416645;26;20008;-46
2024/04/19 00:14:41;;;;;;;8.02;6.55;;;;;;;6.27;83.35;99303.53;5418508;26;19999;-46
2024/04/19 00:17:07;;;;;;;7.00;5.43;;;;;;;6.26;83.13;99299.25;5418309;26;20015;-46
2024/04/19 00:19:33;;;;;;;9.25;5.45;;;;;;;6.25;83.13;99300.25;5418624;26;20080;-46
2024/04/19 00:21:59;;;;;;;7.20;5.78;;;;;;;6.30;83.21;99301.41;5416623;26;20438;-46
2024/04/19 00:24:24;;;;;;;6.72;5.30;;;;;;;6.40;83.48;99303.91;5418344;26;20019;-46
2024/04/19 00:26:50;;;;;;;8.02;5.65;;;;;;;6.46;82.90;99298.06;5416601;26;20004;-46
2024/04/19 00:29:16;;;;;;;5.85;4.80;;;;;;;6.48;82.45;99303.09;5416603;26;20010;-46
2024/04/19 00:31:42;;;;;;;8.48;5.88;;;;;;;6.50;82.34;99298.53;5418202;26;19999;-46
2024/04/19 00:34:07;;;;;;;5.60;4.90;;;;;;;6.49;82.13;99297.72;5418172;26;20007;-46
2024/04/19 00:36:33;;;;;;;8.10;5.50;;;;;;;6.49;82.13;99294.31;5417868;26;20452;-45
2024/04/19 00:38:59;;;;;;;11.52;5.38;;;;;;;6.53;82.43;99296.44;5416438;26;20509;-46
2024/04/19 00:41:25;;;;;;;9.40;5.30;;;;;;;6.61;82.09;99290.41;5418100;26;20003;-45
2024/04/19 00:43:50;;;;;;;12.82;11.52;;;;;;;6.64;81.58;99297.09;5416463;26;20050;-45
2024/04/19 00:46:16;;;;;;;6.82;6.22;;;;;;;6.66;81.61;99305.59;5416287;26;20441;-46
2024/04/19 00:48:43;;;;;;;27.35;24.20;;;;;;;6.65;81.08;99298.75;5386707;26;20031;-46
2024/04/19 00:51:09;;;;;;;11.13;8.48;;;;;;;6.62;81.17;99302.50;5416170;26;20003;-46
2024/04/19 00:53:36;;;;;;;9.30;7.10;;;;;;;6.65;81.03;99303.97;5417900;26;20011;-46
2024/04/19 00:56:03;;;;;;;12.07;9.65;;;;;;;6.64;81.22;99297.94;5417921;26;20004;-46
2024/04/19 00:58:29;;;;;;;8.80;6.50;;;;;;;6.66;81.02;99301.19;5416205;26;20430;-46
2024/04/19 01:01:05;;;;;;;8.48;6.47;;;;;;;6.65;81.06;99298.75;5416081;26;20004;-46
2024/04/19 01:03:31;;;;;;;9.48;7.18;;;;;;;6.66;80.87;99297.75;5416120;26;20014;-46
2024/04/19 01:05:57;;;;;;;7.22;5.70;;;;;;;6.73;81.38;99296.97;5416223;26;20014;-46
2024/04/19 01:08:23;;;;;;;7.78;5.72;;;;;;;6.77;80.68;99298.28;5386545;26;20438;-46
2024/04/19 01:10:50;;;;;;;7.13;6.28;;;;;;;6.77;80.79;99293.06;5416045;26;19999;-46
2024/04/19 01:13:15;;;;;;;10.38;6.88;;;;;;;6.80;80.62;99300.56;5415962;26;20089;-46
2024/04/19 01:15:41;;;;;;;8.95;5.82;;;;;;;6.84;80.59;99295.03;5417640;26;19999;-46
2024/04/19 01:18:07;;;;;;;9.57;6.10;;;;;;;6.80;80.16;99292.75;5417630;26;20010;-46
2024/04/19 01:20:33;;;;;;;9.48;6.18;;;;;;;6.80;80.17;99294.53;5417583;26;20009;-46
2024/04/19 01:22:59;;;;;;;7.30;5.50;;;;;;;6.74;80.04;99295.16;5415908;26;20398;-46
2024/04/19 01:25:34;;;;;;;6.88;5.40;;;;;;;6.69;79.74;99289.63;5417631;26;20453;-45
2024/04/19 01:28:00;;;;;;;8.15;5.60;;;;;;;6.67;80.25;99289.78;5417503;26;20003;-45
2024/04/19 01:30:26;;;;;;;7.53;5.53;;;;;;;6.63;80.02;99298.09;5416883;26;20000;-46
2024/04/19 01:32:51;;;;;;;6.75;6.03;;;;;;;6.57;80.16;99295.13;5417479;26;20011;-46
2024/04/19 01:35:17;;;;;;;10.43;6.70;;;;;;;6.52;80.21;99301.78;5415326;26;20334;-46
2024/04/19 01:37:43;;;;;;;5.47;4.80;;;;;;;6.46;80.34;99305.88;5416102;26;19999;-46
2024/04/19 01:40:09;;;;;;;7.40;5.80;;;;;;;6.36;80.92;99300.78;5415976;26;20015;-46
2024/04/19 01:42:35;;;;;;;8.85;6.53;;;;;;;6.34;80.96;99301.94;5417827;26;20011;-46
2024/04/19 01:45:01;;;;;;;10.63;7.05;;;;;;;6.34;80.96;99300.13;5416188;26;20000;-46
2024/04/19 01:47:26;;;;;;;6.50;5.90;;;;;;;6.36;81.46;99305.19;5417757;26;20007;-46
2024/04/19 01:49:52;;;;;;;7.63;6.78;;;;;;;6.32;81.43;99303.88;5417514;26;20022;-45
2024/04/19 01:52:18;;;;;;;8.60;7.05;;;;;;;6.27;81.30;99303.53;5417323;26;19999;-46
2024/04/19 01:54:43;;;;;;;12.27;7.78;;;;;;;6.18;81.24;99302.69;5417552;26;20575;-46
2024/04/19 01:57:10;;;;;;;9.63;7.32;;;;;;;6.05;80.71;99308.31;5415560;26;20014;-46
2024/04/19 01:59:36;;;;;;;8.23;6.22;;;;;;;5.85;80.87;99312.88;5417589;26;20007;-46
2024/04/19 02:02:02;;;;;;;12.93;6.57;;;;;;;5.66;81.06;99316.53;5417270;26;20089;-46
2024/04/19 02:04:27;;;;;;;9.95;7.30;;;;;;;5.57;81.40;99313.06;5415666;26;20039;-46
2024/04/19 02:06:53;;;;;;;12.05;10.00;;;;;;;5.46;81.92;99305.50;5417302;26;20018;-46
2024/04/19 02:09:19;;;;;;;13.63;11.63;;;;;;;5.36;82.19;99309.97;5417266;26;19999;-46
2024/04/19 02:11:45;;;;;;;9.10;7.93;;;;;;;5.25;82.50;99310.19;5417167;26;20454;-46
2024/04/19 02:14:10;;;;;;;11.82;9.10;;;;;;;5.12;82.89;99311.41;5415007;26;20446;-46
2024/04/19 02:16:36;;;;;;;31.17;27.50;;;;;;;5.08;83.16;99310.06;5416835;26;20467;-46
2024/04/19 02:19:02;;;;;;;9.10;7.43;;;;;;;5.12;83.69;99315.78;5415108;26;20330;-46
2024/04/19 02:21:27;;;;;;;12.50;11.23;;;;;;;5.12;83.82;99318.41;5416865;26;20018;-46
2024/04/19 02:23:56;;;;;;;14.40;10.35;;;;;;;5.04;83.86;99313.94;5416853;26;20084;-46
2024/04/19 02:26:22;;;;;;;12.07;9.07;;;;;;;4.95;83.72;99315.66;5416648;26;20015;-46
2024/04/19 02:31:31;;;;;;;10.98;9.15;;;;;;;4.80;84.15;99317.13;5416650;26;20079;-46
2024/04/19 02:33:57;;;;;;;8.98;7.40;;;;;;;4.62;83.71;99319.69;5416566;26;19999;-46
2024/04/19 02:36:23;;;;;;;15.63;8.02;;;;;;;4.58;84.24;99324.38;5416104;26;20003;-46
2024/04/19 02:38:49;;;;;;;5.43;4.88;;;;;;;4.52;84.29;99324.13;5414799;26;20012;-46
2024/04/19 02:41:15;;;;;;;8.50;6.68;;;;;;;4.40;84.20;99326.91;5414889;26;20015;-46
2024/04/19 02:43:45;;;;;;;13.70;8.85;;;;;;;4.35;84.44;99328.34;5416408;26;20011;-46
2024/04/19 02:46:11;;;;;;;8.25;7.18;;;;;;;4.39;85.23;99327.91;5414704;26;20000;-46
2024/04/19 02:48:37;;;;;;;9.85;7.85;;;;;;;4.46;85.51;99328.13;5416264;26;20003;-45
2024/04/19 02:51:03;;;;;;;8.23;7.43;;;;;;;4.41;85.24;99325.16;5416333;26;20009;-45
2024/04/19 02:53:31;;;;;;;9.23;8.32;;;;;;;4.37;85.19;99332.44;5416315;26;20003;-45
2024/04/19 02:55:58;;;;;;;7.28;6.13;;;;;;;4.21;84.92;99324.44;5416234;26;20079;-46
2024/04/19 02:58:24;;;;;;;9.40;6.82;;;;;;;4.16;85.20;99327.44;5416187;26;20003;-46
2024/04/19 03:00:50;;;;;;;10.65;9.65;;;;;;;4.10;85.74;99329.81;5416360;26;20446;-46
2024/04/19 03:03:16;;;;;;;8.73;6.60;;;;;;;4.06;85.84;99323.25;5416089;26;20018;-46
2024/04/19 03:05:42;;;;;;;9.75;6.97;;;;;;;3.94;85.67;99331.25;5416017;26;20080;-46
2024/04/19 03:08:07;;;;;;;10.88;5.93;;;;;;;3.90;85.94;99326.44;5415982;26;20044;-45
2024/04/19 03:10:40;;;;;;;8.50;7.03;;;;;;;3.91;86.35;99325.50;5415874;26;20093;-45
2024/04/19 03:13:10;;;;;;;10.60;7.30;;;;;;;3.90;86.42;99319.47;5415935;26;19999;-45
2024/04/19 03:15:37;;;;;;;27.67;25.00;;;;;;;3.85;86.96;99311.31;5414057;26;20098;-46
2024/04/19 03:18:04;;;;;;;11.77;10.05;;;;;;;4.03;87.65;99302.78;5414087;26;20007;-46
2024/04/19 03:20:30;;;;;;;12.50;9.82;;;;;;;4.19;88.32;99302.97;5415750;26;20407;-46
2024/04/19 03:22:55;;;;;;;15.55;11.18;;;;;;;4.17;87.31;99300.53;5415748;26;20003;-46
2024/04/19 03:25:21;;;;;;;14.50;11.95;;;;;;;4.07;87.32;99293.75;5384451;26;20003;-46
2024/04/19 03:27:49;;;;;;;20.90;15.38;;;;;;;4.10;87.38;99296.84;5415709;26;19999;-46
2024/04/19 03:30:36;;;;;;;24.15;17.75;;;;;;;3.89;86.55;99291.06;5415486;26;20007;-46
2024/04/19 03:33:02;;;;;;;17.05;12.27;;;;;;;3.89;87.15;99288.47;5415322;26;20036;-45
2024/04/19 03:35:27;;;;;;;12.68;10.77;;;;;;;3.88;86.98;99281.63;5413443;26;20000;-48
2024/04/19 03:37:53;;;;;;;9.23;8.32;;;;;;;3.86;87.03;99284.38;5416019;26;20465;-46
2024/04/19 03:40:19;;;;;;;9.52;8.15;;;;;;;3.76;87.20;99283.59;5415699;26;20012;-46
2024/04/19 03:42:48;;;;;;;8.38;6.65;;;;;;;3.79;87.94;99281.53;5415759;26;20004;-46
2024/04/19 03:47:59;;;;;;;9.20;5.97;;;;;;;3.96;87.78;99287.78;5415763;26;20072;-45
2024/04/19 03:50:25;;;;;;;12.68;6.35;;;;;;;4.08;88.09;99278.00;5384251;26;20008;-45
2024/04/19 03:52:53;;;;;;;9.43;6.90;;;;;;;4.32;88.31;99276.66;5415804;26;20457;-46
2024/04/19 03:55:19;;;;;;;7.63;6.22;;;;;;;4.32;87.24;99281.84;5419044;26;20000;-46
2024/04/19 03:57:44;;;;;;;13.77;6.28;;;;;;;4.21;86.65;99272.47;5417449;26;20000;-46
2024/04/19 04:00:10;;;;;;;7.32;5.32;;;;;;;4.13;86.32;99275.00;5419014;26;20080;-45
2024/04/19 04:02:36;;;;;;;7.65;6.07;;;;;;;3.98;85.53;99274.63;5418994;26;20359;-46
2024/04/19 04:05:02;;;;;;;10.27;7.63;;;;;;;3.77;86.04;99275.66;5418985;26;20050;-46
2024/04/19 04:07:28;;;;;;;7.13;6.20;;;;;;;3.85;87.22;99274.16;5418991;26;20080;-46
2024/04/19 04:09:54;;;;;;;10.75;7.32;;;;;;;3.99;87.48;99274.50;5417157;26;20033;-46
2024/04/19 04:12:20;;;;;;;7.88;6.53;;;;;;;3.98;86.88;99272.03;5418756;26;19999;-45
2024/04/19 04:14:45;;;;;;;9.73;6.60;;;;;;;3.93;86.73;99271.66;5419034;26;19999;-46
2024/04/19 04:17:11;;;;;;;9.88;7.45;;;;;;;3.89;86.85;99278.91;5418470;26;20081;-46
2024/04/19 04:19:37;;;;;;;8.32;6.93;;;;;;;3.78;87.13;99279.91;5418521;26;20076;-46
2024/04/19 04:22:03;;;;;;;9.13;6.72;;;;;;;3.74;87.47;99273.38;5418256;26;20014;-45
2024/04/19 04:24:29;;;;;;;7.20;6.50;;;;;;;3.72;87.60;99264.91;5418622;26;20014;-46
2024/04/19 04:26:54;;;;;;;10.75;6.70;;;;;;;3.55;87.44;99271.63;5418431;26;20011;-45
2024/04/19 04:29:20;;;;;;;8.27;6.38;;;;;;;3.49;87.84;99277.38;5387017;26;20077;-46
2024/04/19 04:31:46;;;;;;;9.38;6.63;;;;;;;3.36;88.11;99277.69;5418443;26;20369;-46
2024/04/19 04:34:11;;;;;;;9.80;8.70;;;;;;;3.22;88.22;99278.13;5418144;26;20007;-46
2024/04/19 04:36:37;;;;;;;8.05;6.88;;;;;;;3.08;88.47;99271.59;5417979;26;20006;-46
2024/04/19 04:39:03;;;;;;;12.40;8.52;;;;;;;3.00;88.82;99277.44;5416433;26;20506;-45
2024/04/19 04:41:29;;;;;;;8.30;7.20;;;;;;;3.03;89.87;99278.13;5418045;26;20015;-46
2024/04/19 04:43:54;;;;;;;8.30;7.45;;;;;;;3.14;90.65;99280.56;5418212;26;19999;-46
2024/04/19 04:46:20;;;;;;;8.43;6.55;;;;;;;3.15;90.55;99284.81;5418110;26;20521;-46
2024/04/19 04:48:45;;;;;;;12.30;10.95;;;;;;;3.13;90.49;99286.72;5418172;26;20454;-45
2024/04/19 04:51:11;;;;;;;9.15;8.27;;;;;;;3.02;90.48;99276.47;5418012;26;20003;-45
2024/04/19 04:53:37;;;;;;;9.05;7.32;;;;;;;3.02;90.73;99292.03;5416413;26;20333;-45
2024/04/19 04:56:03;;;;;;;12.38;7.75;;;;;;;2.93;90.82;99289.31;5417864;26;20015;-46
2024/04/19 04:58:28;;;;;;;9.20;7.68;;;;;;;3.01;91.33;99288.63;5416267;26;20010;-45
2024/04/19 05:00:57;;;;;;;12.25;8.32;;;;;;;3.07;91.52;99295.06;5417884;26;20000;-45
2024/04/19 05:03:22;;;;;;;7.97;6.63;;;;;;;3.17;91.18;99288.09;5414987;26;20000;-45
2024/04/19 05:05:48;;;;;;;16.08;13.68;;;;;;;3.22;90.94;99292.84;5416133;26;20003;-45
2024/04/19 05:08:14;;;;;;;14.57;9.43;;;;;;;3.35;91.05;99299.38;5417951;26;20040;-45
2024/04/19 05:10:39;;;;;;;8.63;7.45;;;;;;;3.90;90.31;99298.69;5386489;26;20015;-46
2024/04/19 05:13:05;;;;;;;16.50;13.07;;;;;;;4.57;87.22;99290.75;5415896;26;20007;-46
2024/04/19 05:15:31;;;;;;;9.77;6.05;;;;;;;5.12;84.57;99287.19;5417742;26;20454;-46
2024/04/19 05:17:56;;;;;;;10.18;7.00;;;;;;;5.68;82.08;99288.56;5415884;26;20365;-46
2024/04/19 05:20:22;;;;;;;10.38;9.38;;;;;;;6.25;79.65;99292.44;5417562;26;20049;-46
2024/04/19 05:22:48;;;;;;;8.32;6.78;;;;;;;6.72;76.92;99297.94;5417585;26;19999;-46
2024/04/19 05:25:13;;;;;;;10.23;6.20;;;;;;;7.06;74.44;99297.00;5415826;26;20341;-46
2024/04/19 05:27:39;;;;;;;6.68;5.95;;;;;;;7.34;73.10;99305.31;5416064;26;19999;-46
2024/04/19 05:30:05;;;;;;;8.65;7.57;;;;;;;7.66;71.13;99302.84;5417567;26;20431;-46
2024/04/19 05:32:31;;;;;;;8.63;6.93;;;;;;;7.97;69.56;99305.56;5417478;26;20003;-46
2024/04/19 05:34:57;;;;;;;7.15;6.03;;;;;;;8.20;68.17;99301.22;5415600;26;20331;-46
2024/04/19 05:37:22;;;;;;;13.40;5.80;;;;;;;8.24;66.14;99306.13;5415411;26;19999;-46
2024/04/19 05:39:48;;;;;;;13.95;8.52;;;;;;;8.06;66.77;99304.53;5417563;26;20080;-46
2024/04/19 05:42:14;;;;;;;11.15;6.30;;;;;;;8.28;66.78;99302.19;5417252;26;20011;-47
2024/04/19 05:44:41;;;;;;;7.75;5.85;;;;;;;8.90;67.07;99306.63;5417347;26;20348;-46
2024/04/19 05:47:06;;;;;;;7.22;6.15;;;;;;;9.48;66.15;99302.56;5417214;26;19999;-46
2024/04/19 05:49:32;;;;;;;9.27;6.40;;;;;;;9.57;64.75;99304.09;5415520;26;20462;-46
2024/04/19 05:51:58;;;;;;;6.40;5.80;;;;;;;9.79;64.86;99307.63;5417206;26;20399;-47
2024/04/19 05:54:23;;;;;;;7.20;4.90;;;;;;;9.97;63.82;99303.84;5415534;26;20018;-47
2024/04/19 05:56:49;;;;;;;7.05;6.35;;;;;;;10.16;62.32;99311.19;5385774;26;20331;-46
2024/04/19 05:59:15;;;;;;;7.50;6.03;;;;;;;10.64;61.77;99305.50;5415249;26;20018;-46
2024/04/19 06:01:40;;;;;;;6.63;5.53;;;;;;;11.28;58.51;99314.41;5417180;26;19999;-46
2024/04/19 06:04:07;;;;;;;8.43;7.10;;;;;;;12.01;55.76;99314.16;5417108;26;20011;-46
2024/04/19 06:06:34;;;;;;;7.20;6.50;;;;;;;12.20;53.70;99305.56;5417061;26;20071;-46
2024/04/19 06:09:00;;;;;;;12.27;11.00;;;;;;;12.72;53.60;99308.59;5416984;26;20014;-46
2024/04/19 06:11:25;;;;;;;13.27;6.80;;;;;;;13.70;53.01;99297.50;5416909;26;20004;-46
2024/04/19 06:13:51;;;;;;;7.40;5.57;;;;;;;14.58;47.61;99299.69;5416909;26;20035;-46
2024/04/19 06:16:17;;;;;;;11.23;5.70;;;;;;;15.47;47.00;99297.03;5414904;26;20015;-46
2024/04/19 06:18:42;;;;;;;10.32;6.95;;;;;;;16.02;44.44;99297.16;5416848;26;20014;-47
2024/04/19 06:21:08;;;;;;;9.02;5.10;;;;;;;16.43;44.57;99292.19;5414967;26;19999;-47
2024/04/19 06:23:34;;;;;;;7.35;5.72;;;;;;;16.98;41.97;99289.41;5417154;26;19999;-47
2024/04/19 06:26:04;;;;;;;9.63;5.85;;;;;;;17.89;40.56;99289.97;5416787;26;20014;-47
2024/04/19 06:28:32;;;;;;;7.28;6.45;;;;;;;18.48;38.77;99287.13;5416730;26;20000;-47
2024/04/19 06:31:12;;;;;;;6.93;6.32;;;;;;;18.79;38.01;99287.72;5416667;26;19995;-46
2024/04/19 06:33:39;;;;;;;12.90;5.50;;;;;;;18.59;37.20;99282.81;5416681;26;20054;-46
2024/04/19 06:36:05;;;;;;;5.22;4.53;;;;;;;18.55;36.95;99289.66;5416510;26;19996;-47
2024/04/19 06:38:31;;;;;;;11.32;6.05;;;;;;;18.64;36.59;99285.56;5415265;26;20004;-46
2024/04/19 06:40:56;;;;;;;8.23;5.13;;;;;;;18.96;36.33;99295.75;5415059;26;20444;-46
2024/04/19 06:43:22;;;;;;;11.70;5.15;;;;;;;19.40;36.43;99301.25;5416871;26;20003;-47
2024/04/19 06:45:48;;;;;;;13.10;4.88;;;;;;;19.80;35.86;99302.09;5416714;26;19999;-45
2024/04/19 06:48:13;;;;;;;8.00;5.57;;;;;;;19.99;35.55;99299.97;5416673;26;20011;-45
2024/04/19 06:50:39;;;;;;;10.68;5.03;;;;;;;20.08;35.18;99301.97;5416687;26;20343;-45
2024/04/19 06:53:05;;;;;;;13.55;6.22;;;;;;;19.72;35.41;99304.13;5416588;26;20369;-45
2024/04/19 06:55:32;;;;;;;10.45;4.80;;;;;;;19.74;35.74;99298.56;5416571;26;20010;-45
2024/04/19 06:57:58;;;;;;;10.52;5.00;;;;;;;20.09;35.90;99294.75;5416451;26;20010;-45
2024/04/19 07:00:24;;;;;;;13.07;5.85;;;;;;;20.53;35.03;99286.72;5385391;26;20001;-45
2024/04/19 07:02:50;;;;;;;16.42;5.90;;;;;;;21.20;34.71;99277.50;5414592;26;20000;-45
2024/04/19 07:05:17;;;;;;;8.70;5.50;;;;;;;21.48;32.58;99278.25;5416287;26;20080;-45
2024/04/19 07:07:49;;;;;;;13.48;5.55;;;;;;;21.68;33.16;99274.91;5416364;26;20364;-45
2024/04/19 07:10:15;;;;;;;11.57;6.18;;;;;;;22.30;31.00;99265.31;5414482;26;19999;-45
2024/04/19 07:12:41;;;;;;;21.88;6.20;;;;;;;23.13;30.34;99270.50;5416320;26;19999;-45
2024/04/19 07:15:10;;;;;;;15.05;5.68;;;;;;;24.36;29.61;99272.06;5416133;26;20326;-45
2024/04/19 07:17:36;;;;;;;10.80;4.88;;;;;;;25.28;28.22;99271.44;5416194;26;20045;-46
2024/04/19 07:20:01;;;;;;;13.80;6.15;;;;;;;25.82;27.72;99272.22;5414060;26;20037;-45
2024/04/19 07:22:27;;;;;;;13.80;5.57;;;;;;;26.00;26.33;99264.53;5415795;26;19999;-45
2024/04/19 07:24:53;;;;;;;10.85;4.50;;;;;;;26.20;25.81;99268.81;5415773;26;20003;-45
2024/04/19 07:27:18;;;;;;;7.00;4.03;;;;;;;26.44;25.70;99269.59;5415245;26;20014;-45
2024/04/19 07:29:44;;;;;;;12.30;5.53;;;;;;;26.76;25.03;99259.97;5419253;26;20003;-46
2024/04/19 07:32:10;;;;;;;6.18;3.83;;;;;;;27.31;24.36;99256.69;5418996;26;20006;-46
2024/04/19 07:34:36;;;;;;;10.55;3.85;;;;;;;27.86;24.26;99255.91;5419091;26;20011;-46
2024/04/19 07:37:01;;;;;;;8.45;3.70;;;;;;;28.24;23.46;99248.38;5419009;26;20003;-46
2024/04/19 07:39:27;;;;;;;8.90;3.63;;;;;;;28.53;23.24;99252.63;5419135;26;20458;-46
2024/04/19 07:41:53;;;;;;;9.55;4.03;;;;;;;27.95;23.13;99246.03;5417258;26;19999;-45
2024/04/19 07:44:18;;;;;;;10.43;4.20;;;;;;;28.01;23.49;99249.41;5417281;26;20011;-45
2024/04/19 07:46:44;;;;;;;13.68;4.00;;;;;;;28.59;23.32;99243.28;5418922;26;20013;-46
2024/04/19 07:49:10;;;;;;;9.23;3.20;;;;;;;28.85;22.60;99238.06;5418966;26;20346;-45
2024/04/19 07:51:35;;;;;;;12.60;3.70;;;;;;;28.80;22.55;99235.50;5417077;26;20007;-46
2024/04/19 07:54:01;;;;;;;10.77;2.90;;;;;;;28.78;21.99;99237.72;5416980;26;20011;-45
2024/04/19 07:56:30;;;;;;;7.82;3.25;;;;;;;28.83;21.71;99240.28;5417099;26;20010;-46
2024/04/19 07:58:56;;;;;;;8.27;3.83;;;;;;;28.64;22.08;99245.09;5418673;26;20454;-45
2024/04/19 08:01:22;;;;;;;8.57;3.55;;;;;;;28.42;22.33;99243.94;5418723;26;20014;-45
2024/04/19 08:03:48;;;;;;;7.50;3.30;;;;;;;27.92;22.95;99241.25;5418766;26;20462;-46
2024/04/19 08:06:14;;;;;;;7.20;3.30;;;;;;;28.03;22.31;99237.22;5418759;26;19999;-45
2024/04/19 08:08:40;;;;;;;5.25;3.40;;;;;;;28.45;22.56;99237.94;5418687;26;20004;-45
2024/04/19 08:11:06;;;;;;;3.53;3.22;;;;;;;28.67;22.25;99236.34;5418555;26;20437;-45
2024/04/19 08:13:32;;;;;;;4.82;3.33;;;;;;;28.25;22.10;99246.47;5418607;26;20076;-46
2024/04/19 08:15:58;;;;;;;6.43;3.85;;;;;;;27.40;23.30;99249.50;5387129;26;20015;-45
2024/04/19 08:18:24;;;;;;;10.82;3.67;;;;;;;25.71;24.35;99259.97;5418533;26;20072;-45
2024/04/19 08:20:50;;;;;;;7.28;3.92;;;;;;;24.42;25.82;99256.75;5418475;26;20004;-45
2024/04/19 08:23:15;;;;;;;4.93;3.78;;;;;;;23.80;26.76;99258.91;5418523;26;20015;-45
2024/04/19 08:25:41;;;;;;;4.50;3.70;;;;;;;24.09;26.82;99261.75;5418495;26;20077;-45
2024/04/19 08:28:07;;;;;;;8.45;3.95;;;;;;;24.24;26.92;99266.22;5416701;26;20018;-45
2024/04/19 08:30:32;;;;;;;11.75;4.03;;;;;;;24.66;26.58;99268.41;5416535;26;20441;-45
2024/04/19 08:32:58;;;;;;;4.70;3.33;;;;;;;24.89;26.23;99266.91;5418224;26;20018;-45
2024/04/19 08:35:26;;;;;;;6.38;3.83;;;;;;;25.45;25.58;99260.25;5417992;26;20015;-47
2024/04/19 08:37:52;;;;;;;4.30;3.55;;;;;;;26.10;24.95;99256.34;5418184;26;20346;-46
2024/04/19 08:40:18;;;;;;;5.25;3.85;;;;;;;26.49;24.42;99256.03;5418305;26;19999;-45
2024/04/19 08:42:44;;;;;;;8.80;3.95;;;;;;;26.63;23.77;99248.06;5416394;26;20437;-45
2024/04/19 08:45:13;;;;;;;7.20;3.80;;;;;;;26.98;23.74;99247.78;5416320;26;20010;-45
2024/04/19 08:47:41;;;;;;;9.38;3.42;;;;;;;27.54;22.28;99238.72;5418058;26;20090;-45
2024/04/19 08:50:07;;;;;;;30.23;5.43;;;;;;;27.81;22.02;99242.50;5418062;26;20003;-46
2024/04/19 08:52:35;;;;;;;4.53;3.40;;;;;;;27.42;22.21;99241.91;5417968;26;20015;-46
2024/04/19 08:55:05;;;;;;;5.35;3.45;;;;;;;26.79;23.08;99242.44;5418045;26;19999;-45
2024/04/19 08:57:35;;;;;;;6.20;4.03;;;;;;;26.68;23.39;99242.63;5418129;26;20076;-45
2024/04/19 09:00:03;;;;;;;7.07;3.70;;;;;;;27.49;22.13;99238.84;5418109;26;20043;-45
2024/04/19 09:02:29;;;;;;;4.60;4.18;;;;;;;27.85;21.40;99240.84;5416241;26;20315;-45
2024/04/19 09:04:55;;;;;;;5.00;4.25;;;;;;;27.35;21.38;99246.13;5417786;26;20474;-45
2024/04/19 09:07:20;;;;;;;16.05;5.18;;;;;;;27.04;21.64;99247.41;5417863;26;20014;-45
2024/04/19 09:09:50;;;;;;;5.85;4.65;;;;;;;27.13;21.82;99239.44;5417856;26;20653;-46
2024/04/19 09:12:16;;;;;;;9.98;4.15;;;;;;;26.72;21.47;99239.31;5417711;26;20003;-45
2024/04/19 09:14:42;;;;;;;6.32;4.22;;;;;;;26.44;22.05;99247.25;5415912;26;20072;-45
2024/04/19 09:17:08;;;;;;;7.28;4.07;;;;;;;26.00;22.54;99245.72;5417627;26;20016;-45
2024/04/19 09:19:35;;;;;;;4.60;3.60;;;;;;;25.18;23.32;99250.03;5417728;26;20027;-45
2024/04/19 09:22:00;;;;;;;7.53;4.28;;;;;;;24.70;23.88;99247.19;5415778;26;20384;-45
2024/04/19 09:24:26;;;;;;;5.30;3.97;;;;;;;24.39;24.18;99252.75;5417537;26;19999;-45
2024/04/19 09:27:02;;;;;;;5.72;3.83;;;;;;;23.92;24.82;99246.81;5415842;26;20003;-45
2024/04/19 09:29:28;;;;;;;4.13;3.72;;;;;;;;;;5417783;26;20466;-45
2024/04/19 09:31:56;;;;;;;4.15;3.53;;;;;;;22.34;25.72;99251.13;5417566;26;20076;-45
2024/04/19 09:34:22;;;;;;;9.55;4.03;;;;;;;22.12;26.59;99250.50;5417560;26;20000;-45
2024/04/19 09:36:47;;;;;;;9.35;4.45;;;;;;;22.58;26.40;99253.34;5417132;26;20027;-45
2024/04/19 09:39:14;;;;;;;5.82;3.88;;;;;;;22.58;26.32;99245.31;5417473;26;20045;-45
2024/04/19 09:41:46;;;;;;;5.28;3.55;;;;;;;22.68;26.33;99242.66;5415618;26;20068;-45
2024/04/19 09:44:15;;;;;;;4.65;3.30;;;;;;;23.03;26.27;99242.94;5415539;26;20075;-45
2024/04/19 09:46:48;;;;;;;5.32;3.22;;;;;;;23.48;25.00;99234.06;5415456;26;20003;-45
2024/04/19 09:49:16;;;;;;;6.07;3.80;;;;;;;23.73;25.03;99230.47;5417083;26;20010;-45
2024/04/19 09:51:46;;;;;;;14.20;12.70;;;;;;;23.81;25.52;99236.41;5416965;26;20023;-44
2024/04/19 09:54:13;;;;;;;11.55;4.75;;;;;;;23.67;25.56;99238.81;5417201;26;20017;-45
2024/04/19 09:56:48;;;;;;;4.47;4.07;;;;;;;23.27;25.41;99230.59;5415321;26;20014;-45
2024/04/19 09:59:15;;;;;;;3.67;3.38;;;;;;;23.17;25.46;99224.47;5417201;26;20055;-45
2024/04/19 10:01:41;;;;;;;3.50;3.00;;;;;;;22.93;25.47;99233.81;5417138;26;20014;-45
2024/04/19 10:04:10;;;;;;;5.00;3.88;;;;;;;22.88;25.89;99225.78;5417139;26;20003;-45
2024/04/19 10:06:37;;;;;;;4.68;4.10;;;;;;;22.82;25.90;99231.41;5417049;26;20345;-45
2024/04/19 10:09:08;;;;;;;5.78;3.80;;;;;;;22.44;26.34;99223.63;5417105;26;20047;-45
2024/04/19 10:11:38;;;;;;;4.32;3.60;;;;;;;22.39;26.39;99233.50;5416983;26;20460;-45
2024/04/19 10:14:07;;;;;;;4.72;3.55;;;;;;;22.51;26.42;99228.69;5416880;26;20011;-45
2024/04/19 10:16:33;;;;;;;4.43;3.53;;;;;;;22.46;26.43;99224.16;5416835;26;20003;-45
2024/04/19 10:19:00;;;;;;;4.68;4.10;;;;;;;22.64;26.23;99222.03;5415281;26;20306;-45
2024/04/19 10:21:27;;;;;;;7.30;4.80;;;;;;;22.83;25.97;99216.97;5416774;26;20015;-45
2024/04/19 10:23:53;;;;;;;5.18;3.55;;;;;;;23.09;25.96;99217.78;5415054;26;20446;-45
2024/04/19 10:26:23;;;;;;;7.00;4.93;;;;;;;22.58;25.93;99213.22;5414990;26;20008;-44
2024/04/19 10:28:52;;;;;;;4.47;3.50;;;;;;;22.07;26.31;99213.06;5416681;26;20011;-44
2024/04/19 10:31:20;;;;;;;5.50;4.53;;;;;;;21.71;27.10;99211.06;5416655;26;20003;-45
2024/04/19 10:33:46;;;;;;;6.47;3.50;;;;;;;21.36;27.47;99208.97;5416371;26;20011;-44
2024/04/19 10:36:12;;;;;;;5.43;4.30;;;;;;;21.26;27.60;99212.38;5416580;26;20003;-45
2024/04/19 10:38:38;;;;;;;4.30;3.83;;;;;;;21.27;27.33;99211.34;5416888;26;20003;-45
2024/04/19 10:41:04;;;;;;;7.43;5.13;;;;;;;21.31;27.77;99203.63;5415130;26;20011;-44
2024/04/19 10:43:31;;;;;;;5.03;3.67;;;;;;;21.40;27.84;99202.06;5416973;26;20018;-45
2024/04/19 10:46:01;;;;;;;4.75;3.67;;;;;;;21.64;27.58;99199.00;5415064;26;20032;-45
2024/04/19 10:48:26;;;;;;;3.38;3.08;;;;;;;22.46;27.00;99191.25;5416712;26;20008;-45
2024/04/19 10:50:52;;;;;;;4.60;2.92;;;;;;;23.68;25.67;99189.50;5415072;26;20016;-45
2024/04/19 10:53:21;;;;;;;6.57;3.28;;;;;;;24.54;24.80;99184.78;5416570;26;20008;-45
2024/04/19 10:55:47;;;;;;;5.93;3.20;;;;;;;25.32;23.59;99177.66;5416504;26;20004;-45
2024/04/19 10:58:13;;;;;;;6.38;3.65;;;;;;;25.38;23.37;99176.50;5416580;26;20323;-45
2024/04/19 11:00:47;;;;;;;5.10;3.30;;;;;;;25.56;23.53;99176.84;5416349;26;20004;-45
2024/04/19 11:03:14;;;;;;;4.78;3.25;;;;;;;25.39;23.21;99170.03;5415565;26;20009;-45
2024/04/19 11:05:40;;;;;;;4.95;3.40;;;;;;;24.78;23.34;99168.75;5416441;26;20401;-45
2024/04/19 11:08:06;;;;;;;4.75;4.22;;;;;;;23.55;24.39;99171.34;5416346;26;20003;-45
2024/04/19 11:10:32;;;;;;;4.38;3.60;;;;;;;22.81;25.55;99162.91;5414495;26;20430;-45
2024/04/19 11:12:58;;;;;;;5.03;3.42;;;;;;;22.63;25.84;99158.91;5416319;26;20000;-45
2024/04/19 11:15:26;;;;;;;4.07;3.50;;;;;;;23.05;25.67;99155.13;5414403;26;20003;-45
2024/04/19 11:17:52;;;;;;;6.25;3.22;;;;;;;23.50;24.78;99148.03;5416469;26;20325;-45
2024/04/19 11:20:19;;;;;;;4.57;2.78;;;;;;;23.56;24.75;99151.50;5416241;26;20014;-44
2024/04/19 11:22:45;;;;;;;23.17;3.88;;;;;;;24.08;24.49;99139.47;5416143;26;20094;-45
2024/04/19 11:25:11;;;;;;;4.75;3.10;;;;;;;23.86;24.59;99132.59;5415883;26;20073;-45
2024/04/19 11:27:37;;;;;;;6.07;3.20;;;;;;;23.18;25.34;99133.16;5414235;26;20470;-45
2024/04/19 11:30:03;;;;;;;3.67;2.88;;;;;;;23.00;25.21;99137.19;5415847;26;20453;-46
2024/04/19 11:32:30;;;;;;;4.43;3.13;;;;;;;22.91;25.28;99125.41;5413900;26;20007;-45
2024/04/19 11:34:56;;;;;;;4.53;2.55;;;;;;;22.62;26.04;99125.19;5414016;26;19999;-45